Time;durP1;ratioP1;P1;durP2;ratioP2;P2;SDS_P1;SDS_P2;PMS_P1;PMS_P2;Temp;Humidity;BMP_temperature;BMP_pressure;BME280_temperature;BME280_humidity;BME280_pressure;Samples;Min_cycle;Max_cycle;Signal;HPM_P1;HPM_P2
2023/01/25 00:00:07;;;;;;;17.35;12.50;;;;;;;3.16;55.24;103135.44;688813;28;1284;-84
2023/01/25 00:00:28;;;;;;;16.92;11.98;;;;;;;3.18;55.24;103136.47;688666;28;1294;-84
2023/01/25 00:00:48;;;;;;;16.73;11.45;;;;;;;3.10;55.13;103124.50;685978;28;1289;-83
2023/01/25 00:01:09;;;;;;;18.23;11.70;;;;;;;3.11;54.88;103118.59;686011;28;1102;-83
2023/01/25 00:01:30;;;;;;;18.40;11.75;;;;;;;3.13;55.18;103124.81;686012;28;1628;-83
2023/01/25 00:01:51;;;;;;;18.30;11.87;;;;;;;3.11;55.15;103123.75;688658;28;1178;-83
2023/01/25 00:02:12;;;;;;;17.05;11.52;;;;;;;3.13;54.85;103122.25;688722;28;1428;-84
2023/01/25 00:02:32;;;;;;;16.33;11.20;;;;;;;3.13;54.88;103132.56;686004;28;1145;-84
2023/01/25 00:02:53;;;;;;;16.27;11.15;;;;;;;3.09;54.77;103120.13;683290;28;1119;-83
2023/01/25 00:03:14;;;;;;;17.40;11.90;;;;;;;3.12;54.77;103125.59;683248;28;1155;-83
2023/01/25 00:03:34;;;;;;;18.35;11.98;;;;;;;3.16;54.86;103132.84;685935;28;1033;-84
2023/01/25 00:03:55;;;;;;;18.50;12.20;;;;;;;3.11;54.68;103123.75;691315;28;1041;-83
2023/01/25 00:04:15;;;;;;;18.48;12.20;;;;;;;3.04;55.08;103113.59;686097;28;1201;-84
2023/01/25 00:04:36;;;;;;;18.25;12.05;;;;;;;3.06;55.02;103120.72;685955;28;1404;-83
2023/01/25 00:05:09;;;;;;;18.60;11.90;;;;;;;3.08;54.85;103118.31;685965;28;1186;-84
2023/01/25 00:05:29;;;;;;;18.40;11.82;;;;;;;3.05;55.02;103116.34;685942;28;990;-84
2023/01/25 00:05:59;;;;;;;18.93;12.03;;;;;;;3.03;55.07;103110.13;685589;28;1156;-84
2023/01/25 00:06:19;;;;;;;17.77;11.90;;;;;;;3.09;54.90;103126.19;683206;29;1191;-84
2023/01/25 00:06:40;;;;;;;18.05;12.20;;;;;;;3.07;55.19;103113.91;683055;29;906;-83
2023/01/25 00:07:00;;;;;;;18.23;12.40;;;;;;;3.03;54.88;103104.97;685831;28;1176;-84
2023/01/25 00:07:22;;;;;;;18.58;12.10;;;;;;;3.06;54.97;103115.56;683299;28;1212;-84
2023/01/25 00:07:43;;;;;;;17.88;11.82;;;;;;;3.05;55.05;103108.59;683382;29;1278;-84
2023/01/25 00:08:04;;;;;;;18.15;11.95;;;;;;;3.03;54.87;103111.78;680533;29;1237;-84
2023/01/25 00:08:24;;;;;;;18.25;12.35;;;;;;;3.08;54.73;103118.31;680696;29;942;-84
2023/01/25 00:08:51;;;;;;;18.10;11.93;;;;;;;3.05;55.15;103112.84;683281;29;1179;-84
2023/01/25 00:09:12;;;;;;;18.63;11.98;;;;;;;3.12;54.76;103126.47;683277;29;1002;-84
2023/01/25 00:09:33;;;;;;;17.30;11.70;;;;;;;3.04;54.98;103111.94;680631;29;1366;-84
2023/01/25 00:09:54;;;;;;;16.60;11.13;;;;;;;3.04;54.85;103108.44;685917;28;1242;-83
2023/01/25 00:10:14;;;;;;;16.08;10.82;;;;;;;3.07;54.94;103111.31;683329;28;988;-84
2023/01/25 00:10:35;;;;;;;17.58;10.93;;;;;;;3.05;55.25;103107.69;683371;29;1090;-84
2023/01/25 00:10:56;;;;;;;17.25;11.15;;;;;;;3.04;54.87;103105.84;683175;28;1071;-83
2023/01/25 00:11:16;;;;;;;18.40;11.77;;;;;;;3.04;55.10;103113.59;683425;29;1120;-83
2023/01/25 00:11:37;;;;;;;17.50;11.80;;;;;;;3.01;55.21;103112.53;683234;29;1165;-83
2023/01/25 00:11:58;;;;;;;17.40;11.98;;;;;;;3.10;55.24;103121.94;685890;28;1199;-84
2023/01/25 00:12:18;;;;;;;17.40;11.60;;;;;;;3.02;55.13;103103.16;683276;28;1217;-84
2023/01/25 00:12:40;;;;;;;16.90;11.30;;;;;;;3.11;55.19;103118.59;685904;28;957;-84
2023/01/25 00:13:01;;;;;;;16.23;11.07;;;;;;;3.13;54.69;103110.25;683148;29;1166;-84
2023/01/25 00:13:22;;;;;;;14.73;10.63;;;;;;;3.19;54.63;103107.31;680458;29;1162;-83
2023/01/25 00:13:43;;;;;;;15.80;10.95;;;;;;;3.20;54.80;103103.09;683344;29;812;-84
2023/01/25 00:14:04;;;;;;;16.40;11.20;;;;;;;3.24;54.74;103106.09;685929;28;1336;-84
2023/01/25 00:14:25;;;;;;;16.42;11.70;;;;;;;3.34;54.56;103118.22;685943;28;1080;-84
2023/01/25 00:14:46;;;;;;;16.43;11.90;;;;;;;3.31;54.83;103104.13;686108;28;733;-84
2023/01/25 00:15:07;;;;;;;17.13;11.70;;;;;;;3.35;54.71;103114.88;685801;28;1075;-84
2023/01/25 00:15:27;;;;;;;17.80;11.90;;;;;;;3.33;54.38;103106.09;685901;28;1235;-84
2023/01/25 00:15:48;;;;;;;16.98;11.57;;;;;;;3.36;54.62;103113.22;686009;28;950;-83
2023/01/25 00:16:09;;;;;;;16.70;11.40;;;;;;;3.36;54.05;103110.66;688659;28;1335;-84
2023/01/25 00:16:31;;;;;;;16.80;11.40;;;;;;;3.41;54.38;103123.22;688633;28;1391;-84
2023/01/25 00:16:52;;;;;;;18.00;11.90;;;;;;;3.37;54.34;103113.34;683025;29;1455;-84
2023/01/25 00:17:13;;;;;;;18.60;12.00;;;;;;;3.37;54.36;103107.28;685860;28;1153;-84
2023/01/25 00:17:33;;;;;;;18.70;12.00;;;;;;;3.33;54.20;103110.34;685920;28;1315;-83
2023/01/25 00:17:54;;;;;;;17.77;11.93;;;;;;;3.32;54.01;103104.28;685871;28;1181;-84
2023/01/25 00:18:14;;;;;;;16.87;11.73;;;;;;;3.35;54.43;103104.56;685856;28;1137;-84
2023/01/25 00:18:35;;;;;;;18.23;12.25;;;;;;;3.36;54.08;103108.06;685828;28;1157;-84
2023/01/25 00:18:55;;;;;;;19.17;12.50;;;;;;;3.35;53.99;103103.63;688554;28;1185;-83
2023/01/25 00:19:16;;;;;;;18.50;12.10;;;;;;;3.39;54.18;103110.94;683139;28;1374;-83
2023/01/25 00:19:37;;;;;;;16.83;11.40;;;;;;;3.31;54.08;103109.28;685792;28;1315;-84
2023/01/25 00:19:58;;;;;;;17.37;11.40;;;;;;;3.27;54.10;103108.97;680628;29;1005;-84
2023/01/25 00:20:18;;;;;;;18.00;11.73;;;;;;;3.25;54.38;103110.50;683174;29;2014;-84
2023/01/25 00:20:39;;;;;;;18.17;11.70;;;;;;;3.13;54.48;103101.59;685899;28;1076;-84
2023/01/25 00:21:17;;;;;;;17.58;11.70;;;;;;;3.06;54.81;103105.25;682991;28;1576;-83
2023/01/25 00:21:39;;;;;;;18.52;12.08;;;;;;;3.09;54.76;103117.53;685831;28;1231;-84
2023/01/25 00:21:59;;;;;;;18.08;11.80;;;;;;;3.01;55.17;103099.66;685904;28;1009;-84
2023/01/25 00:22:25;;;;;;;17.40;12.02;;;;;;;3.08;55.03;103121.81;683244;28;1153;-84
2023/01/25 00:22:46;;;;;;;17.75;12.57;;;;;;;3.03;54.93;103104.97;683257;29;2068;-84
2023/01/25 00:23:07;;;;;;;17.50;12.32;;;;;;;2.99;54.59;103096.00;683303;29;1243;-84
2023/01/25 00:23:27;;;;;;;18.30;12.35;;;;;;;3.02;55.12;103103.16;680457;29;1174;-84
2023/01/25 00:23:49;;;;;;;17.77;12.00;;;;;;;3.03;55.32;103112.69;691301;28;1158;-83
2023/01/25 00:24:21;;;;;;;17.17;11.65;;;;;;;2.98;55.14;103101.94;685837;28;1114;-84
2023/01/25 00:24:42;;;;;;;17.13;11.60;;;;;;;3.00;55.12;103105.56;682722;28;1354;-84
2023/01/25 00:25:03;;;;;;;17.65;12.18;;;;;;;2.93;55.31;103098.00;685048;28;1319;-84
2023/01/25 00:25:23;;;;;;;18.00;12.20;;;;;;;3.00;55.14;103105.56;688457;28;1299;-84
2023/01/25 00:25:44;;;;;;;19.17;12.40;;;;;;;3.00;54.92;103095.25;688640;28;1171;-84
2023/01/25 00:26:05;;;;;;;19.67;12.15;;;;;;;2.97;55.11;103096.63;688572;28;1076;-84
2023/01/25 00:26:28;;;;;;;18.93;12.20;;;;;;;3.00;55.16;103104.69;685969;28;1075;-84
2023/01/25 00:26:48;;;;;;;16.60;11.30;;;;;;;2.96;55.08;103097.38;693761;28;1102;-84
2023/01/25 00:27:11;;;;;;;16.67;11.43;;;;;;;3.01;54.99;103101.34;691289;28;1447;-84
2023/01/25 00:27:31;;;;;;;16.03;11.00;;;;;;;2.96;55.41;103098.31;685833;28;1263;-84
2023/01/25 00:27:52;;;;;;;16.50;11.50;;;;;;;2.99;54.99;103098.59;685895;28;1538;-84
2023/01/25 00:28:13;;;;;;;17.48;12.15;;;;;;;3.00;55.42;103103.00;683184;28;1250;-83
2023/01/25 00:28:37;;;;;;;19.20;12.93;;;;;;;2.99;55.20;103100.25;685864;28;1549;-83
2023/01/25 00:28:58;;;;;;;19.70;12.93;;;;;;;2.89;55.44;103090.72;688494;28;1159;-83
2023/01/25 00:29:18;;;;;;;19.23;12.75;;;;;;;2.94;55.59;103097.22;683300;28;1115;-83
2023/01/25 00:32:11;;;;;;;19.00;12.48;;;;;;;3.04;55.31;103111.00;691269;28;1020;-83
2023/01/25 00:32:41;;;;;;;19.40;12.60;;;;;;;2.95;55.54;103096.47;688790;28;1130;-82
2023/01/25 00:33:21;;;;;;;18.77;12.30;;;;;;;2.97;55.28;103096.63;685731;28;1023;-83
2023/01/25 00:34:05;;;;;;;18.92;12.25;;;;;;;3.01;55.41;103114.22;680443;29;866;-83
2023/01/25 00:34:25;;;;;;;17.92;12.30;;;;;;;3.01;55.30;103109.97;680492;29;1026;-83
2023/01/25 00:34:50;;;;;;;18.73;12.80;;;;;;;2.98;55.26;103108.75;683305;29;1027;-83
2023/01/25 00:35:11;;;;;;;20.38;13.18;;;;;;;2.95;55.45;103096.47;685808;28;1056;-82
2023/01/25 00:35:33;;;;;;;19.65;12.70;;;;;;;3.00;55.39;103100.41;685768;28;1008;-82
2023/01/25 00:35:55;;;;;;;19.10;12.70;;;;;;;2.91;55.42;103089.22;683154;28;1209;-83
2023/01/25 00:36:22;;;;;;;18.35;12.38;;;;;;;2.98;55.06;103106.19;683253;29;1008;-83
2023/01/25 00:36:43;;;;;;;16.48;11.57;;;;;;;2.92;55.00;103091.03;688557;28;763;-82
2023/01/25 00:37:12;;;;;;;16.33;11.38;;;;;;;2.98;55.43;103101.94;685697;28;1236;-84
2023/01/25 00:37:48;;;;;;;18.08;12.35;;;;;;;2.90;55.46;103086.47;688527;28;1385;-82
2023/01/25 00:38:29;;;;;;;18.17;12.63;;;;;;;2.96;55.42;103090.56;685895;28;984;-83
2023/01/25 00:38:52;;;;;;;18.10;12.30;;;;;;;2.98;55.35;103091.63;685820;28;1226;-83
2023/01/25 00:39:13;;;;;;;18.45;12.38;;;;;;;2.90;55.35;103084.81;683191;28;1269;-83
2023/01/25 00:39:33;;;;;;;17.63;12.02;;;;;;;2.91;55.26;103084.03;685887;28;1215;-82
2023/01/25 00:39:54;;;;;;;18.67;12.43;;;;;;;2.92;55.71;103080.69;685808;28;1305;-82
2023/01/25 00:40:15;;;;;;;18.40;12.43;;;;;;;2.99;55.19;103096.00;683186;28;1899;-83
2023/01/25 00:40:35;;;;;;;19.58;13.30;;;;;;;2.92;55.34;103080.69;683232;28;1104;-82
2023/01/25 00:40:57;;;;;;;19.17;13.30;;;;;;;2.92;55.41;103082.34;680511;29;1021;-83
2023/01/25 00:41:18;;;;;;;18.55;12.90;;;;;;;2.91;55.49;103078.88;680556;29;1236;-83
2023/01/25 00:41:39;;;;;;;18.40;12.90;;;;;;;2.94;55.45;103086.03;680500;29;1168;-83
2023/01/25 00:42:00;;;;;;;18.08;12.68;;;;;;;2.96;55.28;103093.16;683033;29;938;-83
2023/01/25 00:42:21;;;;;;;18.73;13.00;;;;;;;2.92;55.36;103080.69;683133;28;1088;-83
2023/01/25 00:42:41;;;;;;;19.20;13.00;;;;;;;2.87;55.71;103072.53;683133;29;1231;-83
2023/01/25 00:43:02;;;;;;;20.40;13.02;;;;;;;2.90;55.27;103078.72;683460;28;1269;-83
2023/01/25 00:43:26;;;;;;;19.90;13.10;;;;;;;2.92;55.62;103080.69;683211;28;1201;-83
2023/01/25 00:43:46;;;;;;;19.85;13.02;;;;;;;2.90;55.19;103071.91;680725;29;843;-82
2023/01/25 00:44:07;;;;;;;19.02;12.57;;;;;;;2.91;55.65;103073.72;683145;29;1235;-83
2023/01/25 00:44:28;;;;;;;19.90;12.47;;;;;;;2.91;55.67;103075.38;683074;28;1149;-82
2023/01/25 00:44:48;;;;;;;20.02;13.05;;;;;;;2.96;55.17;103088.00;683205;28;1203;-83
2023/01/25 00:45:12;;;;;;;20.50;13.30;;;;;;;2.91;55.67;103073.72;683224;29;1313;-83
2023/01/25 00:45:32;;;;;;;21.10;12.80;;;;;;;2.92;55.47;103078.13;683216;28;1223;-83
2023/01/25 00:45:59;;;;;;;20.00;12.40;;;;;;;2.94;55.48;103081.75;683167;29;1126;-83
2023/01/25 00:46:20;;;;;;;17.08;12.05;;;;;;;2.90;55.52;103076.16;683253;29;1097;-83
2023/01/25 00:46:41;;;;;;;18.15;12.90;;;;;;;2.95;55.67;103088.72;683282;28;1406;-83
2023/01/25 00:47:01;;;;;;;19.08;13.00;;;;;;;2.95;55.68;103080.09;688428;28;1196;-83
2023/01/25 00:47:22;;;;;;;18.73;13.17;;;;;;;2.97;55.78;103088.88;688698;28;1157;-83
2023/01/25 00:47:43;;;;;;;18.63;12.70;;;;;;;2.89;55.76;103070.09;688562;28;1123;-83
2023/01/25 00:48:04;;;;;;;20.27;12.63;;;;;;;2.89;55.47;103074.34;688475;28;1160;-83
2023/01/25 00:48:25;;;;;;;21.50;12.90;;;;;;;2.87;55.57;103071.59;683138;28;1342;-82
2023/01/25 00:48:46;;;;;;;20.15;12.43;;;;;;;2.89;55.87;103077.84;686054;28;767;-82
2023/01/25 00:49:19;;;;;;;18.15;12.23;;;;;;;2.90;55.55;103079.66;685926;28;1390;-83
2023/01/25 00:49:41;;;;;;;18.23;12.25;;;;;;;2.90;55.78;103068.41;686069;28;1167;-83
2023/01/25 00:50:02;;;;;;;18.38;12.10;;;;;;;2.91;55.55;103080.53;685914;28;1204;-83
2023/01/25 00:50:23;;;;;;;18.48;12.35;;;;;;;2.88;55.65;103078.59;691799;28;1134;-83
2023/01/25 00:50:43;;;;;;;18.80;12.70;;;;;;;2.90;55.76;103077.06;689156;28;970;-83
2023/01/25 00:51:04;;;;;;;17.50;12.70;;;;;;;2.91;55.54;103085.69;691833;28;1099;-82
2023/01/25 00:51:25;;;;;;;16.27;11.90;;;;;;;2.90;55.64;103086.47;686700;28;1146;-83
2023/01/25 00:51:45;;;;;;;16.90;11.90;;;;;;;2.86;55.66;103074.94;686773;28;1058;-81
2023/01/25 00:52:07;;;;;;;18.13;12.05;;;;;;;2.90;55.66;103079.66;686499;28;1128;-83
2023/01/25 00:52:27;;;;;;;18.23;12.52;;;;;;;2.94;55.28;103081.75;687039;28;1052;-81
2023/01/25 00:52:48;;;;;;;18.85;12.70;;;;;;;2.86;55.57;103069.78;683967;28;1331;-82
2023/01/25 00:53:09;;;;;;;18.67;12.63;;;;;;;2.82;55.58;103072.84;684196;29;1256;-82
2023/01/25 00:53:29;;;;;;;18.40;12.07;;;;;;;2.84;55.70;103071.31;682008;29;1145;-83
2023/01/25 00:53:50;;;;;;;17.40;11.68;;;;;;;2.84;55.58;103073.88;684540;28;1189;-83
2023/01/25 00:54:11;;;;;;;17.23;11.40;;;;;;;2.89;55.38;103085.56;686744;28;1091;-82
2023/01/25 00:54:32;;;;;;;17.90;11.85;;;;;;;2.87;55.40;103076.75;686605;28;1343;-83
2023/01/25 00:54:53;;;;;;;17.40;11.35;;;;;;;2.88;55.41;103086.34;683764;29;1276;-83
2023/01/25 00:55:14;;;;;;;17.50;11.70;;;;;;;2.81;55.70;103061.59;683945;29;1178;-82
2023/01/25 00:55:35;;;;;;;17.90;11.93;;;;;;;2.76;55.38;103062.84;684079;29;1117;-82
2023/01/25 00:55:55;;;;;;;18.08;12.43;;;;;;;2.83;55.67;103074.66;686150;28;1474;-82
2023/01/25 00:56:16;;;;;;;19.20;12.90;;;;;;;2.82;55.54;103075.44;686604;28;1248;-83
2023/01/25 00:56:37;;;;;;;19.40;12.50;;;;;;;2.83;55.60;103069.50;686659;28;1046;-83
2023/01/25 00:56:57;;;;;;;19.50;12.60;;;;;;;2.86;55.36;103077.53;688869;28;1137;-83
2023/01/25 00:57:19;;;;;;;18.17;12.05;;;;;;;2.83;55.22;103072.06;691857;28;1028;-83
2023/01/25 00:57:40;;;;;;;17.95;12.45;;;;;;;2.88;55.46;103076.03;691796;28;1298;-83
2023/01/25 00:58:15;;;;;;;18.27;12.40;;;;;;;2.80;55.38;103058.88;686697;28;975;-83
2023/01/25 00:58:36;;;;;;;18.40;12.23;;;;;;;2.77;55.46;103058.59;683597;28;1387;-83
2023/01/25 00:59:01;;;;;;;17.60;12.20;;;;;;;2.77;55.66;103064.66;683575;28;1278;-83
2023/01/25 00:59:23;;;;;;;18.90;12.60;;;;;;;2.76;55.44;103061.94;689087;28;1093;-83
2023/01/25 00:59:46;;;;;;;19.42;12.90;;;;;;;2.81;55.51;103071.03;683604;28;1310;-82
2023/01/25 01:00:08;;;;;;;19.08;12.82;;;;;;;2.74;55.45;103066.94;683749;29;947;-83
2023/01/25 01:00:29;;;;;;;18.60;12.30;;;;;;;2.75;55.49;103062.69;686508;28;2073;-83
2023/01/25 01:00:53;;;;;;;16.90;11.32;;;;;;;2.84;55.84;103081.63;686115;28;1279;-83
2023/01/25 01:01:14;;;;;;;16.88;11.05;;;;;;;2.75;55.69;103061.00;686003;28;1129;-83
2023/01/25 01:01:35;;;;;;;16.50;11.60;;;;;;;2.80;55.72;103066.59;686279;28;1176;-82
2023/01/25 01:01:56;;;;;;;17.30;11.50;;;;;;;2.74;55.69;103059.19;686024;28;1217;-83
2023/01/25 01:02:16;;;;;;;16.23;11.23;;;;;;;2.82;55.77;103080.59;683560;29;1148;-83
2023/01/25 01:02:37;;;;;;;16.00;11.00;;;;;;;2.78;55.97;103065.56;688723;28;1038;-83
2023/01/25 01:03:02;;;;;;;15.50;10.90;;;;;;;2.74;55.86;103061.75;691536;28;1123;-83
2023/01/25 01:03:23;;;;;;;17.88;11.80;;;;;;;2.77;55.73;103064.66;688705;28;1189;-83
2023/01/25 01:03:44;;;;;;;18.30;12.20;;;;;;;2.76;55.61;103054.19;686042;28;1260;-82
2023/01/25 01:04:05;;;;;;;17.90;12.20;;;;;;;2.77;55.48;103063.75;686002;28;1265;-83
2023/01/25 01:04:26;;;;;;;16.92;12.05;;;;;;;2.80;55.90;103061.44;685928;28;1303;-83
2023/01/25 01:05:01;;;;;;;17.20;12.38;;;;;;;2.82;55.85;103067.69;685895;28;1154;-83
2023/01/25 01:05:26;;;;;;;18.05;12.82;;;;;;;2.79;56.05;103059.63;680667;29;1510;-83
2023/01/25 01:05:47;;;;;;;18.50;12.77;;;;;;;2.89;56.10;103074.34;685857;28;1255;-83
2023/01/25 01:06:45;;;;;;;18.42;12.52;;;;;;;2.94;55.79;103084.31;691224;28;1184;-83
2023/01/25 01:07:23;;;;;;;19.60;12.98;;;;;;;2.87;55.74;103066.44;685688;28;1234;-83
2023/01/25 01:07:49;;;;;;;19.05;12.80;;;;;;;2.92;55.97;103070.38;685941;28;815;-82
2023/01/25 01:08:11;;;;;;;18.48;12.90;;;;;;;2.96;56.14;103074.16;685796;28;1082;-83
2023/01/25 01:08:35;;;;;;;18.77;12.80;;;;;;;2.88;55.89;103063.13;683089;29;1142;-83
2023/01/25 01:08:56;;;;;;;19.42;12.85;;;;;;;2.90;55.90;103066.75;683063;28;1001;-82
2023/01/25 01:09:18;;;;;;;18.40;12.50;;;;;;;2.86;55.83;103067.19;683090;28;1140;-83
2023/01/25 01:09:39;;;;;;;17.63;12.20;;;;;;;2.85;55.78;103065.38;682865;28;1366;-83
2023/01/25 01:09:59;;;;;;;16.90;12.10;;;;;;;2.89;55.65;103072.69;685784;28;1133;-83
2023/01/25 01:10:20;;;;;;;16.77;12.10;;;;;;;2.84;56.08;103077.41;685753;28;936;-83
2023/01/25 01:10:40;;;;;;;17.10;11.85;;;;;;;2.78;55.66;103060.41;683155;29;1202;-83
2023/01/25 01:11:04;;;;;;;17.05;11.45;;;;;;;2.85;56.00;103070.56;680510;29;1118;-83
2023/01/25 01:11:24;;;;;;;17.00;11.57;;;;;;;2.83;55.87;103065.22;680514;29;1375;-82
2023/01/25 01:11:45;;;;;;;17.83;12.20;;;;;;;2.89;55.49;103077.84;683208;29;1277;-83
2023/01/25 01:12:06;;;;;;;18.37;12.30;;;;;;;2.85;56.02;103078.28;683116;28;1317;-83
2023/01/25 01:12:26;;;;;;;18.40;12.25;;;;;;;2.80;55.78;103064.03;688337;28;1327;-83
2023/01/25 01:12:47;;;;;;;18.88;12.25;;;;;;;2.80;55.64;103069.19;685917;28;1234;-83
2023/01/25 01:13:08;;;;;;;18.83;12.25;;;;;;;2.81;55.96;103071.91;683079;28;1383;-83
2023/01/25 01:13:29;;;;;;;19.20;12.50;;;;;;;2.73;55.84;103060.88;688733;28;1268;-83
2023/01/25 01:13:51;;;;;;;18.40;12.20;;;;;;;2.80;56.14;103074.34;688424;28;1148;-82
2023/01/25 01:14:11;;;;;;;17.95;12.20;;;;;;;2.78;55.96;103066.47;685808;28;1186;-83
2023/01/25 01:14:32;;;;;;;19.00;12.70;;;;;;;2.84;55.56;103076.47;680598;29;993;-83
2023/01/25 01:14:52;;;;;;;19.08;12.77;;;;;;;2.73;55.83;103060.88;683122;28;1193;-83
2023/01/25 01:15:13;;;;;;;18.90;12.73;;;;;;;2.77;55.70;103066.31;685821;28;1187;-83
2023/01/25 01:15:36;;;;;;;16.70;12.00;;;;;;;2.76;55.65;103067.09;685844;28;1096;-83
2023/01/25 01:16:03;;;;;;;16.85;11.75;;;;;;;2.82;55.38;103075.44;680408;28;1219;-83
2023/01/25 01:16:25;;;;;;;18.30;11.82;;;;;;;2.66;55.79;103061.03;683066;28;1381;-83
2023/01/25 01:16:46;;;;;;;19.38;12.25;;;;;;;2.70;55.57;103068.28;688470;28;1226;-83
2023/01/25 01:17:07;;;;;;;18.23;12.20;;;;;;;2.67;56.00;103056.78;688326;28;1091;-82
2023/01/25 01:17:27;;;;;;;16.00;11.50;;;;;;;2.71;55.83;103071.78;688509;28;1000;-83
2023/01/25 01:17:48;;;;;;;16.77;11.70;;;;;;;2.68;55.77;103069.81;688524;28;1178;-83
2023/01/25 01:18:09;;;;;;;17.88;12.00;;;;;;;2.69;56.01;103069.06;688426;28;1369;-83
2023/01/25 01:18:35;;;;;;;18.90;12.23;;;;;;;2.67;55.89;103062.84;688500;28;1106;-83
2023/01/25 01:18:56;;;;;;;17.15;11.95;;;;;;;2.68;55.92;103059.50;688242;28;1126;-83
2023/01/25 01:19:26;;;;;;;16.95;12.23;;;;;;;2.70;55.87;103063.13;685755;28;1107;-83
2023/01/25 01:19:47;;;;;;;18.17;12.63;;;;;;;2.80;55.64;103080.41;685543;28;1437;-82
2023/01/25 01:20:08;;;;;;;19.93;12.83;;;;;;;2.75;55.58;103070.44;685712;28;1336;-83
2023/01/25 01:20:29;;;;;;;18.08;12.50;;;;;;;2.76;55.60;103070.59;683085;28;1919;-83
2023/01/25 01:20:51;;;;;;;17.33;11.77;;;;;;;2.70;56.09;103065.72;683069;28;1219;-83
2023/01/25 01:21:12;;;;;;;16.70;11.77;;;;;;;2.74;56.11;103069.50;683063;29;1111;-83
2023/01/25 01:21:33;;;;;;;17.45;12.00;;;;;;;2.76;56.01;103072.25;683210;29;1137;-83
2023/01/25 01:21:53;;;;;;;17.73;12.35;;;;;;;2.82;56.01;103078.88;683084;29;1040;-83
2023/01/25 01:22:14;;;;;;;17.20;12.40;;;;;;;2.79;55.90;103077.69;685714;28;1257;-83
2023/01/25 01:22:35;;;;;;;17.27;12.32;;;;;;;2.71;55.75;103059.78;683069;28;1201;-83
2023/01/25 01:22:56;;;;;;;17.70;12.27;;;;;;;2.70;55.73;103060.56;683050;29;1040;-83
2023/01/25 01:23:17;;;;;;;18.42;12.27;;;;;;;2.71;55.90;103062.38;683143;29;1311;-83
2023/01/25 01:23:38;;;;;;;20.10;13.00;;;;;;;2.74;55.56;103069.50;680473;28;1415;-83
2023/01/25 01:23:59;;;;;;;19.65;12.90;;;;;;;2.78;55.79;103076.78;683007;28;1132;-83
2023/01/25 01:24:19;;;;;;;18.37;12.37;;;;;;;2.71;55.66;103059.78;680442;28;1220;-83
2023/01/25 01:24:41;;;;;;;17.52;12.20;;;;;;;2.71;55.52;103064.94;683090;29;1267;-83
2023/01/25 01:25:02;;;;;;;17.45;12.20;;;;;;;2.82;55.66;103076.31;685686;28;1268;-83
2023/01/25 01:25:24;;;;;;;17.38;12.07;;;;;;;2.73;55.86;103068.59;685889;28;851;-83
2023/01/25 01:25:45;;;;;;;17.83;12.10;;;;;;;2.76;55.90;103068.00;685843;28;1360;-83
2023/01/25 01:26:10;;;;;;;18.67;12.32;;;;;;;2.75;55.70;103068.75;683013;29;1119;-83
2023/01/25 01:26:30;;;;;;;18.30;12.50;;;;;;;2.74;55.91;103064.34;683076;29;1174;-83
2023/01/25 01:26:51;;;;;;;17.58;12.18;;;;;;;2.72;55.85;103063.28;685740;28;1055;-83
2023/01/25 01:27:12;;;;;;;17.80;12.27;;;;;;;2.75;55.71;103061.00;685775;28;1248;-83
2023/01/25 01:27:32;;;;;;;18.60;12.50;;;;;;;2.76;55.53;103067.09;683099;29;1131;-83
2023/01/25 01:27:53;;;;;;;18.25;12.40;;;;;;;2.75;55.60;103063.59;683109;29;1162;-83
2023/01/25 01:28:13;;;;;;;18.73;12.80;;;;;;;2.75;56.03;103067.84;683107;28;1223;-83
2023/01/25 01:28:38;;;;;;;18.30;12.70;;;;;;;2.78;55.70;103079.38;685847;28;1214;-83
2023/01/25 01:28:58;;;;;;;17.63;12.40;;;;;;;2.67;56.00;103073.16;683044;28;1221;-83
2023/01/25 01:29:19;;;;;;;18.08;12.27;;;;;;;2.70;55.76;103068.28;680479;29;1337;-83
2023/01/25 01:29:40;;;;;;;17.80;12.50;;;;;;;2.75;56.10;103075.59;685708;28;1200;-83
2023/01/25 01:30:00;;;;;;;17.73;12.60;;;;;;;2.76;55.98;103070.59;685756;28;1200;-83
2023/01/25 01:30:21;;;;;;;17.50;12.68;;;;;;;2.70;55.93;103070.88;685634;28;1185;-83
2023/01/25 01:30:42;;;;;;;17.40;12.43;;;;;;;2.69;56.19;103063.00;688501;28;1256;-83
2023/01/25 01:31:09;;;;;;;18.48;12.85;;;;;;;2.70;55.64;103067.41;685658;28;1221;-82
2023/01/25 01:31:33;;;;;;;18.80;13.10;;;;;;;2.66;56.03;103071.34;685751;28;1331;-83
2023/01/25 01:32:03;;;;;;;18.55;12.93;;;;;;;2.70;56.11;103081.19;682966;28;1175;-82
2023/01/25 01:32:24;;;;;;;18.50;12.85;;;;;;;2.68;55.73;103076.63;683134;29;1085;-82
2023/01/25 01:32:45;;;;;;;18.23;12.18;;;;;;;2.63;56.08;103068.44;683155;28;1250;-82
2023/01/25 01:33:06;;;;;;;19.55;12.55;;;;;;;2.67;55.62;103078.31;685521;28;1223;-82
2023/01/25 01:33:27;;;;;;;19.17;12.60;;;;;;;2.66;55.69;103073.00;685656;28;982;-83
2023/01/25 01:33:49;;;;;;;20.85;13.05;;;;;;;2.75;55.93;103080.75;688325;28;1317;-82
2023/01/25 01:34:13;;;;;;;20.02;12.77;;;;;;;2.71;55.84;103085.56;685777;28;1629;-83
2023/01/25 01:34:34;;;;;;;18.45;12.65;;;;;;;2.68;55.72;103072.41;683112;29;1243;-83
2023/01/25 01:34:55;;;;;;;17.55;12.18;;;;;;;2.66;55.90;103066.19;682855;28;1194;-82
2023/01/25 01:35:16;;;;;;;17.20;12.10;;;;;;;2.67;55.88;103069.66;683130;28;1268;-82
2023/01/25 01:35:36;;;;;;;18.30;12.70;;;;;;;2.74;55.94;103079.81;683174;28;1070;-83
2023/01/25 01:35:57;;;;;;;18.52;12.98;;;;;;;2.71;55.52;103072.69;685658;28;1145;-82
2023/01/25 01:36:19;;;;;;;19.48;12.70;;;;;;;2.78;55.58;103084.53;685690;28;1193;-83
2023/01/25 01:36:40;;;;;;;19.60;12.30;;;;;;;2.72;55.69;103074.53;680293;28;1376;-82
2023/01/25 01:37:01;;;;;;;20.23;12.10;;;;;;;2.76;55.67;103082.56;682976;29;1389;-83
2023/01/25 01:37:22;;;;;;;18.35;12.43;;;;;;;2.76;55.57;103082.56;683203;28;1307;-83
2023/01/25 01:37:42;;;;;;;17.85;11.93;;;;;;;2.77;55.51;103090.44;683095;28;1329;-83
2023/01/25 01:38:03;;;;;;;17.93;12.37;;;;;;;2.70;55.56;103072.56;682998;28;1145;-83
2023/01/25 01:38:24;;;;;;;18.37;12.37;;;;;;;2.69;55.43;103074.22;682968;28;1088;-83
2023/01/25 01:38:45;;;;;;;18.75;12.82;;;;;;;2.73;55.81;103078.94;685853;28;736;-83
2023/01/25 01:39:06;;;;;;;17.95;12.40;;;;;;;2.66;55.31;103070.44;682883;28;1177;-83
2023/01/25 01:39:26;;;;;;;18.20;12.55;;;;;;;2.67;55.65;103073.16;685805;28;1208;-83
2023/01/25 01:39:47;;;;;;;18.88;12.60;;;;;;;2.65;55.70;103068.63;688495;28;1170;-83
2023/01/25 01:40:13;;;;;;;18.60;12.37;;;;;;;2.69;55.54;103071.63;683018;29;1179;-83
2023/01/25 01:40:34;;;;;;;17.05;11.98;;;;;;;2.65;55.63;103078.94;685710;28;1209;-82
2023/01/25 01:40:55;;;;;;;16.50;11.90;;;;;;;2.65;55.57;103076.34;685778;28;1139;-82
2023/01/25 01:41:15;;;;;;;17.15;12.18;;;;;;;2.62;55.29;103068.31;691089;28;1295;-83
2023/01/25 01:41:37;;;;;;;18.33;12.45;;;;;;;2.62;55.73;103074.38;691236;28;1196;-83
2023/01/25 01:41:58;;;;;;;18.00;12.35;;;;;;;2.63;55.38;103070.16;685712;28;1092;-83
2023/01/25 01:42:19;;;;;;;17.17;11.93;;;;;;;2.64;55.68;103079.69;691085;28;1197;-83
2023/01/25 01:42:59;;;;;;;16.77;11.88;;;;;;;2.74;55.65;103092.72;690983;28;1234;-82
2023/01/25 01:43:23;;;;;;;18.15;11.80;;;;;;;2.61;55.63;103067.41;686074;28;1183;-83
2023/01/25 01:43:44;;;;;;;18.00;11.55;;;;;;;2.70;55.72;103086.34;685761;28;1101;-83
2023/01/25 01:44:05;;;;;;;17.67;11.57;;;;;;;2.66;55.81;103081.66;685739;28;1242;-83
2023/01/25 01:44:46;;;;;;;17.92;12.00;;;;;;;2.65;55.92;103095.31;685547;28;1165;-83
2023/01/25 01:45:48;;;;;;;17.80;12.30;;;;;;;2.66;55.51;103091.97;682402;29;1052;-83
2023/01/25 01:46:22;;;;;;;18.42;12.60;;;;;;;2.68;55.73;103085.28;685733;28;1103;-83
2023/01/25 01:46:52;;;;;;;17.35;12.20;;;;;;;2.70;55.96;103088.03;685718;28;838;-83
2023/01/25 01:47:20;;;;;;;16.77;12.10;;;;;;;2.67;55.56;103072.25;691069;28;1271;-83
2023/01/25 01:47:45;;;;;;;15.90;11.60;;;;;;;2.61;55.60;103077.72;691117;28;1226;-83
2023/01/25 01:48:14;;;;;;;16.10;11.15;;;;;;;2.59;55.67;103069.81;690904;28;1418;-83
2023/01/25 01:48:49;;;;;;;16.55;11.52;;;;;;;2.65;55.74;103085.00;685637;28;1352;-83
2023/01/25 01:49:26;;;;;;;15.90;11.45;;;;;;;2.61;55.68;103092.28;683042;29;1007;-83